Time;durP1;ratioP1;P1;durP2;ratioP2;P2;SDS_P1;SDS_P2;PMS_P1;PMS_P2;Temp;Humidity;BMP_temperature;BMP_pressure;BME280_temperature;BME280_humidity;BME280_pressure;Samples;Min_cycle;Max_cycle;Signal;HPM_P1;HPM_P2
2024/01/20 00:00:13;;;;;;;11.17;10.87;;;;;;;-141.02;100.00;90731.94;5112486;28;20250;-71
2024/01/20 00:02:40;;;;;;;10.03;9.73;;;;;;;-141.02;100.00;90981.13;5112508;28;20189;-71
2024/01/20 00:05:08;;;;;;;10.60;10.30;;;;;;;-141.02;100.00;91230.38;5112490;28;20673;-71
2024/01/20 00:07:35;;;;;;;9.70;9.40;;;;;;;-141.02;100.00;91728.88;5112426;28;20246;-70
2024/01/20 00:10:10;;;;;;;8.87;8.67;;;;;;;-141.02;100.00;91230.38;5112753;28;20194;-70
2024/01/20 00:12:37;;;;;;;9.70;9.40;;;;;;;-141.02;100.00;90981.13;5112491;28;20272;-70
2024/01/20 00:15:05;;;;;;;10.60;10.30;;;;;;;-141.02;100.00;90981.13;5112233;28;20249;-71
2024/01/20 00:17:32;;;;;;;10.00;9.70;;;;;;;-141.02;100.00;91230.38;5112344;28;20232;-70
2024/01/20 00:19:59;;;;;;;9.70;9.40;;;;;;;-141.02;100.00;91230.38;5112218;28;20319;-71
2024/01/20 00:22:26;;;;;;;10.33;10.03;;;;;;;-141.02;100.00;91230.38;5112352;28;20276;-70
2024/01/20 00:24:53;;;;;;;9.30;9.10;;;;;;;-141.02;100.00;91479.63;5112277;28;20228;-70
2024/01/20 00:27:21;;;;;;;10.07;9.77;;;;;;;-141.02;100.00;91479.63;5112631;28;20276;-71
2024/01/20 00:29:48;;;;;;;9.13;8.93;;;;;;;-141.02;100.00;91479.63;5112544;28;20201;-70
2024/01/20 00:32:15;;;;;;;9.20;9.00;;;;;;;-141.02;100.00;91728.88;5112826;28;20280;-70
2024/01/20 00:34:42;;;;;;;11.20;10.90;;;;;;;-141.02;100.00;91978.16;5112524;28;20228;-71
2024/01/20 00:37:09;;;;;;;12.50;12.10;;;;;;;-141.02;100.00;91978.16;5112439;28;20276;-71
2024/01/20 00:39:37;;;;;;;9.67;9.37;;;;;;;-141.02;100.00;91728.88;5112453;28;20189;-71
2024/01/20 00:42:04;;;;;;;11.67;11.37;;;;;;;-141.02;100.00;91978.16;5112496;28;20280;-70
2024/01/20 00:44:33;;;;;;;11.03;10.73;;;;;;;-141.02;100.00;91978.16;5112430;28;20548;-71
2024/01/20 00:46:59;;;;;;;10.03;9.73;;;;;;;-141.02;100.00;91978.16;5112046;28;20193;-70
2024/01/20 00:49:26;;;;;;;9.93;9.63;;;;;;;-141.02;100.00;91479.63;5116072;28;20329;-70
2024/01/20 00:51:53;;;;;;;10.63;10.33;;;;;;;-141.02;100.00;91728.88;5116019;28;20284;-69
2024/01/20 00:54:20;;;;;;;10.63;10.33;;;;;;;-141.02;100.00;91728.88;5116344;28;20193;-70
2024/01/20 00:56:48;;;;;;;10.77;10.47;;;;;;;-141.02;100.00;91479.63;5116005;28;20650;-70
2024/01/20 00:59:15;;;;;;;13.37;12.97;;;;;;;-141.02;100.00;91230.38;5115935;28;20689;-70
2024/01/20 01:01:43;;;;;;;12.83;12.43;;;;;;;-141.02;100.00;90731.94;5115828;28;20239;-70
2024/01/20 01:04:10;;;;;;;11.47;11.17;;;;;;;-141.02;100.00;91230.38;5116131;28;20273;-70
2024/01/20 01:06:37;;;;;;;10.60;10.30;;;;;;;-141.02;100.00;90731.94;5115809;28;20197;-71
2024/01/20 01:09:04;;;;;;;12.87;12.47;;;;;;;-141.02;100.00;90233.56;5116094;28;20193;-72
2024/01/20 01:11:31;;;;;;;13.37;12.97;;;;;;;-141.02;100.00;90731.94;5115977;28;20225;-70
2024/01/20 01:13:58;;;;;;;11.67;11.37;;;;;;;-141.02;100.00;90482.72;5115646;28;20194;-69
2024/01/20 01:16:25;;;;;;;11.53;11.23;;;;;;;-141.02;100.00;89735.28;5115343;28;20264;-69
2024/01/20 01:18:54;;;;;;;12.10;11.70;;;;;;;-141.02;100.00;89984.41;5115821;28;20220;-69
2024/01/20 01:21:21;;;;;;;12.97;12.57;;;;;;;-141.02;100.00;89984.41;5115666;28;20229;-70
2024/01/20 01:23:48;;;;;;;14.50;14.00;;;;;;;-141.02;100.00;89486.16;5115432;28;20285;-70
2024/01/20 01:26:15;;;;;;;12.43;12.03;;;;;;;-141.02;100.00;89735.28;5115430;28;20208;-71
2024/01/20 01:28:42;;;;;;;13.57;13.17;;;;;;;-141.02;100.00;89735.28;5115673;28;20193;-70
2024/01/20 01:31:09;;;;;;;14.00;13.60;;;;;;;-141.02;100.00;89486.16;5115313;28;20197;-70
2024/01/20 01:33:37;;;;;;;12.83;12.43;;;;;;;-141.02;100.00;89735.28;5115276;28;20734;-70
2024/01/20 01:36:06;;;;;;;11.93;11.63;;;;;;;-141.02;100.00;89984.41;5115511;28;20193;-70
2024/01/20 01:38:33;;;;;;;13.20;12.80;;;;;;;-141.02;100.00;89984.41;5115201;28;20193;-70
2024/01/20 01:41:00;;;;;;;14.70;14.20;;;;;;;-141.02;100.00;89735.28;5115283;28;20311;-71
2024/01/20 01:43:27;;;;;;;13.40;13.00;;;;;;;-141.02;100.00;90233.56;5115064;28;20195;-71
2024/01/20 01:45:54;;;;;;;13.17;12.77;;;;;;;-141.02;100.00;89984.41;5114986;28;20645;-72
2024/01/20 01:48:22;;;;;;;12.50;12.10;;;;;;;-141.02;100.00;89735.28;5115220;28;20277;-71
2024/01/20 01:50:50;;;;;;;11.83;11.53;;;;;;;-141.02;100.00;89735.28;5114874;28;20682;-72
2024/01/20 01:53:20;;;;;;;11.93;11.63;;;;;;;-141.02;100.00;89984.41;5115149;28;20568;-72
2024/01/20 01:55:48;;;;;;;12.20;11.80;;;;;;;-141.02;100.00;89735.28;5115132;28;20279;-72
2024/01/20 01:58:15;;;;;;;12.03;11.73;;;;;;;-141.02;100.00;89486.16;5114392;28;20580;-72
2024/01/20 02:00:42;;;;;;;11.90;11.60;;;;;;;-141.02;100.00;89486.16;5115070;28;20312;-72
2024/01/20 02:03:09;;;;;;;11.73;11.43;;;;;;;-141.02;100.00;89237.03;5114647;28;20201;-71
2024/01/20 02:05:36;;;;;;;11.77;11.47;;;;;;;-141.02;100.00;88987.97;5114940;28;20287;-71
2024/01/20 02:08:04;;;;;;;11.13;10.83;;;;;;;-141.02;100.00;89237.03;5114914;28;20633;-71
2024/01/20 02:10:34;;;;;;;11.40;11.10;;;;;;;-141.02;100.00;89486.16;5114538;28;20207;-71
2024/01/20 02:13:01;;;;;;;10.50;10.20;;;;;;;-141.02;100.00;89735.28;5114808;28;20201;-71
2024/01/20 02:15:29;;;;;;;10.67;10.37;;;;;;;-141.02;100.00;89735.28;5114300;28;20229;-72
2024/01/20 02:17:56;;;;;;;10.83;10.53;;;;;;;-141.02;100.00;88987.97;5114578;28;20280;-72
2024/01/20 02:20:24;;;;;;;10.80;10.50;;;;;;;-141.02;100.00;88987.97;5114520;28;20642;-70
2024/01/20 02:22:52;;;;;;;11.70;11.30;;;;;;;-141.02;100.00;89237.03;5114529;28;20200;-70
2024/01/20 02:25:19;;;;;;;11.93;11.53;;;;;;;-141.02;100.00;89735.28;5114255;28;20233;-71
2024/01/20 02:27:46;;;;;;;12.03;11.63;;;;;;;-141.02;100.00;90233.56;5114497;28;20193;-71
2024/01/20 02:30:13;;;;;;;11.63;11.23;;;;;;;-141.02;100.00;89735.28;5114491;28;20197;-71
2024/01/20 02:32:40;;;;;;;11.10;10.80;;;;;;;-141.02;100.00;89735.28;5114382;28;20272;-70
2024/01/20 02:35:09;;;;;;;11.60;11.20;;;;;;;-141.02;100.00;89984.41;5114396;28;20193;-71
2024/01/20 02:37:36;;;;;;;12.20;11.80;;;;;;;-141.02;100.00;89984.41;5114032;28;20614;-70
2024/01/20 02:40:07;;;;;;;12.10;11.70;;;;;;;-141.02;100.00;90482.72;5114315;28;20228;-69
2024/01/20 02:42:33;;;;;;;12.00;11.60;;;;;;;-141.02;100.00;89984.41;5114233;28;20197;-70
2024/01/20 02:45:00;;;;;;;12.03;11.63;;;;;;;-141.02;100.00;89486.16;5113895;28;20240;-70
2024/01/20 02:47:27;;;;;;;12.00;11.60;;;;;;;-141.02;100.00;89735.28;5114171;28;20223;-71
2024/01/20 02:49:54;;;;;;;11.30;11.00;;;;;;;-141.02;100.00;89984.41;5114108;28;20199;-69
2024/01/20 02:52:21;;;;;;;12.00;11.60;;;;;;;-141.02;100.00;89984.41;5113959;28;20659;-72
2024/01/20 02:54:48;;;;;;;12.27;11.87;;;;;;;-141.02;100.00;89735.28;5113695;28;20199;-69
2024/01/20 02:57:18;;;;;;;12.17;11.77;;;;;;;-141.02;100.00;88987.97;5113897;28;20197;-69
2024/01/20 02:59:45;;;;;;;13.20;12.80;;;;;;;-141.02;100.00;89237.03;5113884;28;20232;-68
2024/01/20 03:02:12;;;;;;;13.53;13.13;;;;;;;-141.02;100.00;89486.16;5113719;28;20256;-69
2024/01/20 03:04:38;;;;;;;12.20;11.80;;;;;;;-141.02;100.00;89735.28;5113819;28;20201;-68
2024/01/20 03:07:05;;;;;;;12.53;12.13;;;;;;;-141.02;100.00;89735.28;5113483;28;20193;-69
2024/01/20 03:09:32;;;;;;;12.57;12.17;;;;;;;-141.02;100.00;89984.41;5113675;28;20221;-68
2024/01/20 03:12:01;;;;;;;12.40;12.00;;;;;;;-141.02;100.00;90482.72;5112668;28;20236;-68
2024/01/20 03:14:29;;;;;;;12.70;12.30;;;;;;;-141.02;100.00;90482.72;5113600;28;20197;-68
2024/01/20 03:16:56;;;;;;;11.87;11.57;;;;;;;-141.02;100.00;90731.94;5113093;28;20671;-68
2024/01/20 03:19:24;;;;;;;11.27;10.97;;;;;;;-141.02;100.00;90233.56;5113301;28;20567;-67
2024/01/20 03:21:51;;;;;;;10.80;10.50;;;;;;;-141.02;100.00;90731.94;5113381;28;20228;-67
2024/01/20 03:24:19;;;;;;;11.50;11.20;;;;;;;-141.02;100.00;90482.72;5113419;28;20272;-67
2024/01/20 03:26:47;;;;;;;11.40;11.10;;;;;;;-141.02;100.00;90981.13;5113297;28;20197;-67
2024/01/20 03:29:14;;;;;;;11.13;10.83;;;;;;;-141.02;100.00;91728.88;5113027;28;20197;-67
2024/01/20 03:31:42;;;;;;;10.80;10.50;;;;;;;-141.02;100.00;92476.78;5113245;28;20201;-66
2024/01/20 03:34:09;;;;;;;11.03;10.73;;;;;;;-141.02;100.00;93224.84;5112918;28;20280;-67
2024/01/20 03:36:36;;;;;;;9.70;9.40;;;;;;;-141.02;100.00;93224.84;5112909;28;20197;-66
2024/01/20 03:39:04;;;;;;;9.10;8.90;;;;;;;-141.02;100.00;93723.63;5113181;28;20231;-67
2024/01/20 03:41:30;;;;;;;8.23;8.03;;;;;;;-141.02;100.00;93723.63;5113094;28;20311;-66
2024/01/20 03:43:57;;;;;;;9.03;8.83;;;;;;;-141.02;100.00;94721.44;5113056;28;20193;-67
2024/01/20 03:46:24;;;;;;;8.87;8.67;;;;;;;-141.02;100.00;95470.00;5113103;28;20193;-67
2024/01/20 03:48:53;;;;;;;9.10;8.90;;;;;;;-141.02;100.00;96468.31;5113030;28;20280;-67
2024/01/20 03:51:21;;;;;;;9.17;8.97;;;;;;;-141.02;100.00;97466.91;5113003;28;20228;-67
2024/01/20 03:53:49;;;;;;;7.57;7.37;;;;;;;-141.02;100.00;97966.31;5112692;28;20840;-66
2024/01/20 03:56:15;;;;;;;8.33;8.13;;;;;;;-141.02;100.00;97966.31;5112580;28;20287;-66
2024/01/20 03:58:42;;;;;;;8.60;8.40;;;;;;;-141.02;100.00;98216.03;5112937;28;20292;-66
2024/01/20 04:01:09;;;;;;;8.73;8.53;;;;;;;-141.02;100.00;98216.03;5112806;28;20311;-68
2024/01/20 04:03:36;;;;;;;8.90;8.70;;;;;;;-141.02;100.00;98715.56;5112822;28;20268;-66
2024/01/20 04:06:06;;;;;;;9.37;9.13;;;;;;;-141.02;100.00;98965.34;5112737;28;20276;-67
2024/01/20 04:08:33;;;;;;;10.60;10.30;;;;;;;-141.02;100.00;99215.16;5112708;28;20211;-66
2024/01/20 04:11:00;;;;;;;10.27;9.97;;;;;;;-141.02;100.00;99215.16;5112756;28;20209;-67
2024/01/20 04:13:27;;;;;;;11.97;11.57;;;;;;;-141.02;100.00;99464.97;5112746;28;20189;-67
2024/01/20 04:15:55;;;;;;;12.03;11.63;;;;;;;-141.02;100.00;99964.66;5112257;28;20268;-66
2024/01/20 04:18:22;;;;;;;10.07;9.77;;;;;;;-141.02;100.00;99964.66;5112409;28;20197;-67
2024/01/20 04:20:49;;;;;;;11.23;10.93;;;;;;;-141.02;100.00;99964.66;5112574;28;20245;-68
2024/01/20 04:23:17;;;;;;;11.13;10.83;;;;;;;-141.02;100.00;100214.53;5116296;28;20199;-67
2024/01/20 04:25:44;;;;;;;9.63;9.33;;;;;;;-141.02;100.00;99964.66;5116565;28;20578;-67
2024/01/20 04:28:11;;;;;;;11.03;10.73;;;;;;;-141.02;100.00;99964.66;5117416;28;20597;-68
2024/01/20 04:30:38;;;;;;;10.00;9.70;;;;;;;-141.02;100.00;99964.66;5116829;28;20196;-70
2024/01/20 04:33:05;;;;;;;9.87;9.57;;;;;;;-141.02;100.00;100464.44;5116806;28;20193;-69
2024/01/20 04:35:32;;;;;;;10.83;10.53;;;;;;;-141.02;100.00;100464.44;5116393;28;20570;-68
2024/01/20 04:37:59;;;;;;;11.57;11.17;;;;;;;-141.02;100.00;100714.34;5116383;28;20283;-69
2024/01/20 04:40:28;;;;;;;9.60;9.30;;;;;;;-141.02;100.00;100964.25;5116664;28;20225;-70
2024/01/20 04:42:55;;;;;;;8.07;7.87;;;;;;;-141.02;100.00;100964.25;5116455;28;20221;-67
2024/01/20 04:45:22;;;;;;;9.00;8.80;;;;;;;-141.02;100.00;100964.25;5116541;28;20199;-69
2024/01/20 04:47:48;;;;;;;10.60;10.30;;;;;;;-141.02;100.00;101214.22;5116136;28;20627;-67
2024/01/20 04:50:15;;;;;;;9.47;9.17;;;;;;;-141.02;100.00;101464.19;5116087;28;20195;-71
2024/01/20 04:52:42;;;;;;;10.10;9.80;;;;;;;-141.02;100.00;101714.16;5116464;28;20240;-75
2024/01/20 04:55:10;;;;;;;7.80;7.60;;;;;;;-141.02;100.00;101964.16;5115988;28;20235;-66
2024/01/20 04:57:38;;;;;;;8.97;8.77;;;;;;;-141.02;100.00;102214.16;5115941;28;20568;-67
2024/01/20 05:00:07;;;;;;;8.60;8.40;;;;;;;-141.02;100.00;102214.16;5115900;28;20197;-71
2024/01/20 05:02:35;;;;;;;8.80;8.60;;;;;;;-141.02;100.00;102464.22;5115775;28;20236;-73
2024/01/20 05:05:03;;;;;;;10.20;9.90;;;;;;;-141.02;100.00;102964.34;5116207;28;20276;-73
2024/01/20 05:07:30;;;;;;;9.30;9.00;;;;;;;-141.02;100.00;102964.34;5115784;28;20197;-72
2024/01/20 05:09:57;;;;;;;7.90;7.70;;;;;;;-141.02;100.00;102964.34;5115795;28;20190;-72
2024/01/20 05:12:24;;;;;;;8.60;8.40;;;;;;;-141.02;100.00;103214.44;5115981;28;20229;-78
2024/01/20 05:14:53;;;;;;;9.97;9.67;;;;;;;-141.02;100.00;103214.44;5115429;28;20189;-76
2024/01/20 05:17:20;;;;;;;10.07;9.77;;;;;;;-141.02;100.00;103464.53;5115952;28;20217;-71
2024/01/20 05:19:47;;;;;;;10.33;10.03;;;;;;;-141.02;100.00;103464.53;5115554;28;20201;-71
2024/01/20 05:22:14;;;;;;;12.87;12.47;;;;;;;-141.02;100.00;103464.53;5115745;28;20307;-72
2024/01/20 05:24:41;;;;;;;9.97;9.67;;;;;;;-141.02;100.00;103714.66;5115778;28;20288;-72
2024/01/20 05:27:08;;;;;;;12.27;11.87;;;;;;;-141.02;100.00;103714.66;5115828;28;20282;-71
2024/01/20 05:29:35;;;;;;;9.23;9.00;;;;;;;-141.02;100.00;103714.66;5115728;28;20224;-74
2024/01/20 05:32:04;;;;;;;11.30;11.00;;;;;;;-141.02;100.00;103964.81;5115907;28;20272;-77
2024/01/20 05:34:31;;;;;;;10.23;9.93;;;;;;;-141.02;100.00;103964.81;5114915;28;20280;-75
2024/01/20 05:36:58;;;;;;;10.20;9.90;;;;;;;-141.02;100.00;103964.81;5115548;28;20193;-78
2024/01/20 05:39:25;;;;;;;8.57;8.37;;;;;;;-141.02;100.00;104214.97;5118743;28;20295;-68
2024/01/20 05:41:52;;;;;;;10.70;10.40;;;;;;;-141.02;100.00;103964.81;5122200;28;20220;-72
2024/01/20 05:44:18;;;;;;;8.50;8.30;;;;;;;-141.02;100.00;103964.81;5119637;28;20655;-80
2024/01/20 05:46:45;;;;;;;9.70;9.40;;;;;;;-141.02;100.00;103714.66;5118225;28;20202;-77
2024/01/20 05:49:14;;;;;;;8.60;8.40;;;;;;;-141.02;100.00;103464.53;5119496;28;20197;-78
2024/01/20 05:51:41;;;;;;;8.90;8.70;;;;;;;-141.02;100.00;103214.44;5117641;28;20666;-77
2024/01/20 05:54:08;;;;;;;10.10;9.80;;;;;;;-141.02;100.00;102964.34;5115565;28;20277;-75
2024/01/20 05:56:35;;;;;;;11.03;10.63;;;;;;;-141.02;100.00;102964.34;5115462;28;20281;-83
2024/01/20 05:59:02;;;;;;;32.97;30.97;;;;;;;-141.02;100.00;102964.34;5115591;28;20278;-74
2024/01/20 06:01:29;;;;;;;9.80;9.50;;;;;;;-141.02;100.00;102714.25;5114969;28;20260;-81
2024/01/20 06:03:56;;;;;;;11.37;10.97;;;;;;;-141.02;100.00;102964.34;5115244;28;20195;-78
2024/01/20 06:06:24;;;;;;;11.47;11.07;;;;;;;-141.02;100.00;103214.44;5115152;28;20235;-74
2024/01/20 06:08:51;;;;;;;11.40;11.00;;;;;;;-141.02;100.00;103464.53;5114827;28;20732;-82
2024/01/20 06:11:18;;;;;;;10.37;10.07;;;;;;;-141.02;100.00;103714.66;5114671;28;20288;-82
2024/01/20 06:13:45;;;;;;;10.50;10.20;;;;;;;-141.02;100.00;103964.81;5114824;28;20247;-80
2024/01/20 06:16:12;;;;;;;9.63;9.33;;;;;;;-141.02;100.00;103964.81;5114344;28;20662;-80
2024/01/20 06:18:39;;;;;;;9.43;9.13;;;;;;;-141.02;100.00;104214.97;5114407;28;20228;-79
2024/01/20 06:21:06;;;;;;;10.40;10.10;;;;;;;-141.02;100.00;104214.97;5114690;28;20269;-73
2024/01/20 06:23:35;;;;;;;8.13;7.93;;;;;;;-141.02;100.00;104214.97;5114261;28;20243;-73
2024/01/20 06:26:03;;;;;;;9.70;9.40;;;;;;;-141.02;100.00;104214.97;5114336;28;20283;-79
2024/01/20 06:28:30;;;;;;;9.53;9.23;;;;;;;-141.02;100.00;104214.97;5114224;28;20204;-75
2024/01/20 06:30:56;;;;;;;8.27;8.07;;;;;;;-141.02;100.00;104214.97;5114467;28;20238;-71
2024/01/20 06:33:23;;;;;;;8.60;8.40;;;;;;;-141.02;100.00;104465.16;5114442;28;20253;-77
2024/01/20 06:35:51;;;;;;;9.10;8.90;;;;;;;-141.02;100.00;104465.16;5114324;28;20189;-78
2024/01/20 06:38:18;;;;;;;9.90;9.60;;;;;;;-141.02;100.00;104465.16;5114007;28;20197;-78
2024/01/20 06:40:46;;;;;;;9.80;9.50;;;;;;;-141.02;100.00;104465.16;5114006;28;20306;-73
2024/01/20 06:43:13;;;;;;;9.70;9.40;;;;;;;-141.02;100.00;104465.16;5113897;28;20263;-75
2024/01/20 06:45:42;;;;;;;9.10;8.90;;;;;;;-141.02;100.00;104214.97;5112871;28;20242;-75
2024/01/20 06:48:09;;;;;;;8.63;8.43;;;;;;;-141.02;100.00;104214.97;5114125;28;20279;-78
2024/01/20 06:50:43;;;;;;;9.23;9.00;;;;;;;-141.02;100.00;104214.97;5114524;28;20201;-78
2024/01/20 06:53:10;;;;;;;9.97;9.67;;;;;;;-141.02;100.00;103964.81;5113815;28;20193;-74
2024/01/20 06:55:37;;;;;;;10.10;9.80;;;;;;;-141.02;100.00;103964.81;5113725;28;20276;-76
2024/01/20 06:58:05;;;;;;;10.70;10.40;;;;;;;-141.02;100.00;104465.16;5113625;28;20232;-78
2024/01/20 07:00:32;;;;;;;10.07;9.77;;;;;;;-141.02;100.00;104465.16;5113632;28;20730;-78
2024/01/20 07:02:59;;;;;;;9.27;8.97;;;;;;;-141.02;100.00;104465.16;5113485;28;20229;-78
2024/01/20 07:05:26;;;;;;;10.03;9.73;;;;;;;-141.02;100.00;104214.97;5113847;28;20220;-79
2024/01/20 07:07:53;;;;;;;10.17;9.87;;;;;;;-141.02;100.00;104214.97;5113525;28;20288;-76
2024/01/20 07:10:20;;;;;;;9.70;9.40;;;;;;;-141.02;100.00;104214.97;5113647;28;20193;-76
2024/01/20 07:12:47;;;;;;;9.70;9.40;;;;;;;-141.02;100.00;104465.16;5113324;28;20621;-76
2024/01/20 07:15:16;;;;;;;9.67;9.37;;;;;;;-141.02;100.00;104214.97;5113298;28;20312;-78
2024/01/20 07:17:43;;;;;;;10.53;10.23;;;;;;;-141.02;100.00;103964.81;5113609;28;20272;-75
2024/01/20 07:20:11;;;;;;;10.30;10.00;;;;;;;-141.02;100.00;103714.66;5113263;28;20228;-78
2024/01/20 07:22:38;;;;;;;8.80;8.60;;;;;;;-141.02;100.00;103214.44;5113081;28;20239;-75
2024/01/20 07:25:06;;;;;;;8.70;8.50;;;;;;;-141.02;100.00;103214.44;5113206;28;20204;-77
2024/01/20 07:27:33;;;;;;;9.90;9.60;;;;;;;-141.02;100.00;102714.25;5113058;28;20292;-76
2024/01/20 07:30:01;;;;;;;10.03;9.73;;;;;;;-141.02;100.00;101964.16;5113406;28;20280;-76
2024/01/20 07:32:29;;;;;;;10.47;10.17;;;;;;;-141.02;100.00;101464.19;5113334;28;20197;-73
2024/01/20 07:34:56;;;;;;;10.70;10.40;;;;;;;-141.02;100.00;101214.22;5113015;28;20284;-78
2024/01/20 07:37:24;;;;;;;10.30;10.00;;;;;;;-141.02;100.00;100714.34;5113234;28;20201;-78
2024/01/20 07:39:50;;;;;;;11.03;10.73;;;;;;;-141.02;100.00;100214.53;5113107;28;20208;-79
2024/01/20 07:42:17;;;;;;;11.77;11.37;;;;;;;-141.02;100.00;99964.66;5112753;28;20316;-71
2024/01/20 07:44:44;;;;;;;11.70;11.40;;;;;;;-141.02;100.00;99714.81;5112838;28;20634;-76
2024/01/20 07:47:13;;;;;;;12.83;12.43;;;;;;;-141.02;100.00;99964.66;5112861;28;20677;-74
2024/01/20 07:49:41;;;;;;;13.43;13.03;;;;;;;-141.02;100.00;99714.81;5113055;28;20651;-76
2024/01/20 07:52:08;;;;;;;13.40;13.00;;;;;;;-141.02;100.00;99215.16;5112939;28;20204;-79
2024/01/20 07:54:35;;;;;;;13.90;13.40;;;;;;;-141.02;100.00;99215.16;5113054;28;20221;-77
2024/01/20 07:57:02;;;;;;;14.10;13.60;;;;;;;-141.02;100.00;98965.34;5112671;28;20297;-79
2024/01/20 07:59:30;;;;;;;14.10;13.60;;;;;;;-141.02;100.00;98965.34;5112973;28;20266;-75
2024/01/20 08:01:57;;;;;;;14.63;14.13;;;;;;;-141.02;100.00;98715.56;5112803;28;20193;-80
2024/01/20 08:04:23;;;;;;;14.33;13.83;;;;;;;-141.02;100.00;98465.78;5112549;28;20201;-79
2024/01/20 08:06:52;;;;;;;17.20;16.60;;;;;;;-141.02;100.00;98715.56;5113019;28;20254;-66
2024/01/20 08:09:20;;;;;;;14.33;13.83;;;;;;;-141.02;100.00;98715.56;5112584;28;20189;-81
2024/01/20 08:11:47;;;;;;;13.47;13.07;;;;;;;-141.02;100.00;98216.03;5112484;28;20197;-79
2024/01/20 08:14:14;;;;;;;14.37;13.87;;;;;;;-141.02;100.00;98216.03;5112412;28;20205;-81
2024/01/20 08:16:40;;;;;;;15.07;14.57;;;;;;;-141.02;100.00;97716.59;5112272;28;20232;-70
2024/01/20 08:19:09;;;;;;;15.10;14.60;;;;;;;-141.02;100.00;97217.22;5112430;28;20283;-82
2024/01/20 08:21:36;;;;;;;15.83;15.23;;;;;;;-141.02;100.00;96218.69;5112345;28;20193;-79
2024/01/20 08:24:05;;;;;;;16.87;16.27;;;;;;;-141.02;100.00;95969.13;5112654;28;20259;-76
2024/01/20 08:26:32;;;;;;;16.57;15.97;;;;;;;-141.02;100.00;96717.94;5112708;28;20197;-81
2024/01/20 08:28:59;;;;;;;16.33;15.73;;;;;;;-141.02;100.00;96967.56;5112708;28;20197;-80
2024/01/20 08:31:27;;;;;;;14.73;14.23;;;;;;;-141.02;100.00;96967.56;5112290;28;20278;-76
2024/01/20 08:33:54;;;;;;;15.20;14.70;;;;;;;-141.02;100.00;96967.56;5112228;28;20200;-77
2024/01/20 08:36:21;;;;;;;14.90;14.40;;;;;;;-141.02;100.00;97217.22;5112275;28;20568;-77
2024/01/20 08:38:48;;;;;;;14.30;13.80;;;;;;;-141.02;100.00;96218.69;5112552;28;20275;-80
2024/01/20 08:41:17;;;;;;;16.00;15.40;;;;;;;-141.02;100.00;96468.31;5112238;28;20200;-74
2024/01/20 08:43:45;;;;;;;17.20;16.50;;;;;;;-141.02;100.00;96218.69;5112371;28;20234;-74
2024/01/20 08:46:12;;;;;;;17.97;17.27;;;;;;;-141.02;100.00;95969.13;5112131;28;20754;-78
2024/01/20 08:48:40;;;;;;;16.93;16.23;;;;;;;-141.02;100.00;94970.94;5112473;28;20220;-75
2024/01/20 08:51:06;;;;;;;17.90;17.10;;;;;;;-141.02;100.00;94970.94;5112482;28;20201;-76
2024/01/20 08:53:34;;;;;;;19.23;18.43;;;;;;;-141.02;100.00;94222.50;5112474;28;20203;-75
2024/01/20 08:56:01;;;;;;;17.73;16.93;;;;;;;-141.02;100.00;94222.50;5112395;28;20227;-71
2024/01/20 08:58:29;;;;;;;18.60;17.80;;;;;;;-141.02;100.00;93723.63;5112065;28;20196;-73
2024/01/20 09:00:56;;;;;;;18.80;18.00;;;;;;;-141.02;100.00;93224.84;5112350;28;20293;-74
2024/01/20 09:03:23;;;;;;;18.43;17.63;;;;;;;-141.02;100.00;92726.13;5112195;28;20260;-75
2024/01/20 09:05:50;;;;;;;17.33;16.63;;;;;;;-141.02;100.00;92975.47;5112036;28;20193;-77
2024/01/20 09:08:17;;;;;;;17.27;16.57;;;;;;;-141.02;100.00;93723.63;5112051;28;20228;-77
2024/01/20 09:10:44;;;;;;;17.10;16.40;;;;;;;-141.02;100.00;93224.84;5115812;28;20757;-74
2024/01/20 09:13:11;;;;;;;17.63;16.83;;;;;;;-141.02;100.00;92975.47;5116037;28;20224;-75
2024/01/20 09:15:40;;;;;;;17.73;16.93;;;;;;;-141.02;100.00;93224.84;5115548;28;20229;-71
2024/01/20 09:18:07;;;;;;;18.50;17.60;;;;;;;-141.02;100.00;93224.84;5115874;28;20280;-73
2024/01/20 09:20:34;;;;;;;18.43;17.53;;;;;;;-141.02;100.00;92726.13;5115854;28;20203;-72
2024/01/20 09:23:01;;;;;;;19.47;18.47;;;;;;;-141.02;100.00;92476.78;5115397;28;20664;-73
2024/01/20 09:25:28;;;;;;;18.73;17.73;;;;;;;-141.02;100.00;92476.78;5115667;28;20223;-73
2024/01/20 09:27:55;;;;;;;20.83;19.73;;;;;;;-141.02;100.00;91230.38;5115669;28;20197;-71
2024/01/20 09:30:22;;;;;;;21.10;20.00;;;;;;;-141.02;100.00;91479.63;5115376;28;20193;-72
2024/01/20 09:32:50;;;;;;;21.13;20.03;;;;;;;-141.02;100.00;91479.63;5115665;28;20224;-72
2024/01/20 09:35:17;;;;;;;23.30;22.10;;;;;;;-141.02;100.00;90981.13;5115323;28;20288;-72
2024/01/20 09:37:44;;;;;;;20.90;19.80;;;;;;;-141.02;100.00;91479.63;5115534;28;20279;-74
2024/01/20 09:40:12;;;;;;;22.57;21.27;;;;;;;-141.02;100.00;89486.16;5115425;28;20655;-73
2024/01/20 09:42:40;;;;;;;21.70;20.60;;;;;;;-141.02;100.00;89984.41;5115461;28;20197;-71
2024/01/20 09:45:08;;;;;;;19.40;18.40;;;;;;;-141.02;100.00;90482.72;5115343;28;20193;-71
2024/01/20 09:47:35;;;;;;;20.27;19.27;;;;;;;-141.02;100.00;89984.41;5115037;28;20291;-72
2024/01/20 09:50:05;;;;;;;19.47;18.57;;;;;;;-141.02;100.00;89984.41;5115293;28;20197;-72
2024/01/20 09:52:32;;;;;;;18.00;17.20;;;;;;;-141.02;100.00;90482.72;5114961;28;20190;-73
2024/01/20 09:55:12;;;;;;;17.57;16.77;;;;;;;-141.02;100.00;91479.63;5114890;28;20196;-73
2024/01/20 09:57:41;;;;;;;17.67;16.87;;;;;;;-141.02;100.00;90981.13;5115183;28;20271;-72
2024/01/20 10:00:09;;;;;;;17.60;16.80;;;;;;;-141.02;100.00;90482.72;5115620;28;20200;-72
2024/01/20 10:02:40;;;;;;;16.50;15.70;;;;;;;-141.02;100.00;90731.94;5114952;28;20223;-72
2024/01/20 10:05:10;;;;;;;16.80;16.00;;;;;;;-141.02;100.00;90981.13;5114648;28;20185;-72
2024/01/20 10:07:38;;;;;;;16.43;15.63;;;;;;;-141.02;100.00;90981.13;5114690;28;20190;-71
2024/01/20 10:10:06;;;;;;;16.70;15.90;;;;;;;-141.02;100.00;90731.94;5114896;28;20197;-71
2024/01/20 10:12:34;;;;;;;17.00;16.20;;;;;;;-141.02;100.00;90731.94;5114531;28;20233;-71
2024/01/20 10:15:00;;;;;;;16.57;15.77;;;;;;;-141.02;100.00;91479.63;5114672;28;20197;-71
2024/01/20 10:17:27;;;;;;;16.60;15.80;;;;;;;-141.02;100.00;92227.47;5114496;28;20277;-70
2024/01/20 10:19:54;;;;;;;17.10;16.20;;;;;;;-141.02;100.00;90731.94;5114193;28;20670;-71
2024/01/20 10:22:23;;;;;;;16.90;16.00;;;;;;;-141.02;100.00;91728.88;5114372;28;20547;-71
2024/01/20 10:24:51;;;;;;;16.83;15.93;;;;;;;-141.02;100.00;92227.47;5114552;28;20231;-70
2024/01/20 10:27:18;;;;;;;19.10;18.20;;;;;;;-141.02;100.00;91728.88;5114304;28;20197;-71
2024/01/20 10:29:46;;;;;;;18.60;17.60;;;;;;;-141.02;100.00;91978.16;5114197;28;20206;-72
2024/01/20 10:32:14;;;;;;;17.87;16.97;;;;;;;-141.02;100.00;92476.78;5114444;28;20566;-71
2024/01/20 10:34:41;;;;;;;18.37;17.37;;;;;;;-141.02;100.00;92227.47;5114470;28;20272;-71
2024/01/20 10:37:11;;;;;;;18.60;17.60;;;;;;;-141.02;100.00;92227.47;5114152;28;20197;-71
2024/01/20 10:39:42;;;;;;;19.17;18.07;;;;;;;-141.02;100.00;92726.13;5114079;28;20201;-71
2024/01/20 10:42:12;;;;;;;19.67;18.47;;;;;;;-141.02;100.00;92975.47;5114101;28;20185;-72
2024/01/20 10:44:42;;;;;;;20.60;19.30;;;;;;;-141.02;100.00;91728.88;5114231;28;20584;-71
2024/01/20 10:47:23;;;;;;;21.13;19.83;;;;;;;-141.02;100.00;91728.88;5113813;28;20196;-71
2024/01/20 10:49:50;;;;;;;19.77;18.57;;;;;;;-141.02;100.00;91479.63;5113816;28;20198;-70
2024/01/20 10:52:18;;;;;;;20.23;19.03;;;;;;;-141.02;100.00;91230.38;5113795;28;20643;-71
2024/01/20 10:54:47;;;;;;;20.50;19.20;;;;;;;-141.02;100.00;91230.38;5113691;28;20199;-70
2024/01/20 10:57:14;;;;;;;20.20;19.00;;;;;;;-141.02;100.00;91479.63;5113990;28;20203;-70